createdAt,value
2018-06-13T00:02:17.110Z,18.20
2018-06-13T00:07:19.241Z,14.57
2018-06-13T00:12:21.380Z,13.23
2018-06-13T00:17:23.537Z,11.00
2018-06-13T00:22:25.669Z,16.77
2018-06-13T00:27:27.799Z,12.40
2018-06-13T00:32:29.942Z,13.40
2018-06-13T00:37:32.110Z,15.87
2018-06-13T00:42:34.250Z,16.93
2018-06-13T00:47:36.397Z,15.33
2018-06-13T00:52:38.529Z,13.70
2018-06-13T00:57:40.670Z,14.30
2018-06-13T01:02:42.861Z,12.23
2018-06-13T01:07:45.019Z,15.03
2018-06-13T01:12:47.177Z,14.17
2018-06-13T01:17:49.337Z,12.50
2018-06-13T01:22:51.465Z,20.33
2018-06-13T01:27:53.614Z,15.20
2018-06-13T01:32:55.770Z,15.60
2018-06-13T01:37:57.980Z,14.83
2018-06-13T01:43:00.140Z,14.60
2018-06-13T01:48:02.287Z,14.60
2018-06-13T01:53:04.422Z,14.60
2018-06-13T01:58:06.697Z,15.33
2018-06-13T02:03:09.006Z,19.80
2018-06-13T02:08:11.157Z,16.23
2018-06-13T02:13:13.317Z,18.60
2018-06-13T02:18:15.482Z,17.30
2018-06-13T02:23:17.618Z,19.57
2018-06-13T02:28:19.766Z,15.80
2018-06-13T02:33:21.941Z,19.10
2018-06-13T02:38:24.115Z,15.30
2018-06-13T02:43:26.264Z,12.87
2018-06-13T02:48:28.405Z,17.30
2018-06-13T02:53:30.546Z,12.60
2018-06-13T02:58:32.677Z,13.90
2018-06-13T03:03:34.821Z,12.43
2018-06-13T03:08:36.985Z,14.30
2018-06-13T03:13:39.118Z,13.47
2018-06-13T03:18:41.277Z,12.23
2018-06-13T03:23:43.429Z,14.00
2018-06-13T03:28:45.562Z,11.50
2018-06-13T03:33:47.734Z,13.60
2018-06-13T03:38:49.902Z,14.63
2018-06-13T03:43:52.053Z,12.27
2018-06-13T03:48:54.209Z,14.63
2018-06-13T03:53:56.379Z,12.33
2018-06-13T03:58:58.509Z,12.30
2018-06-13T04:04:00.659Z,9.93
2018-06-13T04:09:03.606Z,12.73
2018-06-13T04:14:05.749Z,9.97
2018-06-13T04:19:07.893Z,12.90
2018-06-13T04:24:10.142Z,13.30
2018-06-13T04:29:12.302Z,12.10
2018-06-13T04:34:14.501Z,9.00
2018-06-13T04:39:16.674Z,8.57
2018-06-13T04:44:18.838Z,10.77
2018-06-13T04:49:20.993Z,8.27
2018-06-13T04:54:23.189Z,10.63
2018-06-13T04:59:26.230Z,8.10
2018-06-13T05:04:28.396Z,8.70
2018-06-13T05:09:30.541Z,7.60
2018-06-13T05:14:32.714Z,7.40
2018-06-13T05:19:34.902Z,6.20
2018-06-13T05:24:37.078Z,6.57
2018-06-13T05:29:39.238Z,6.47
2018-06-13T05:34:41.424Z,7.50
2018-06-13T05:39:43.634Z,9.60
2018-06-13T05:44:45.789Z,16.13
2018-06-13T05:49:47.957Z,22.57
2018-06-13T05:54:50.188Z,15.60
2018-06-13T05:59:52.322Z,15.53
2018-06-13T06:04:54.490Z,11.63
2018-06-13T06:09:56.658Z,9.50
2018-06-13T06:14:58.816Z,9.00
2018-06-13T06:20:00.982Z,8.73
2018-06-13T06:25:03.250Z,11.20
2018-06-13T06:30:05.447Z,8.63
2018-06-13T06:35:07.599Z,6.77
2018-06-13T06:40:09.733Z,14.70
2018-06-13T06:45:11.862Z,11.27
2018-06-13T06:50:14.001Z,6.97
2018-06-13T06:55:16.212Z,7.30
2018-06-13T07:00:18.331Z,6.50
2018-06-13T07:05:20.472Z,9.03
2018-06-13T07:10:22.656Z,8.53
2018-06-13T07:15:24.801Z,6.33
2018-06-13T07:20:27.030Z,6.80
2018-06-13T07:25:29.166Z,9.10
2018-06-13T07:30:31.310Z,6.97
2018-06-13T07:35:33.472Z,6.87
2018-06-13T07:40:35.602Z,8.50
2018-06-13T07:45:37.735Z,6.20
2018-06-13T07:50:39.886Z,7.00
2018-06-13T07:55:42.027Z,4.43
2018-06-13T08:00:44.181Z,6.40
2018-06-13T08:05:46.345Z,9.53
2018-06-13T08:10:48.502Z,4.40
2018-06-13T08:15:50.650Z,5.57
2018-06-13T08:20:52.785Z,5.17
2018-06-13T08:25:55.065Z,7.60
2018-06-13T08:30:57.206Z,4.13
2018-06-13T08:35:59.361Z,6.67
2018-06-13T08:41:01.515Z,7.87
2018-06-13T08:46:04.004Z,5.43
2018-06-13T08:51:06.141Z,4.93
2018-06-13T08:56:08.289Z,4.07
2018-06-13T09:01:10.421Z,4.20
2018-06-13T09:06:12.575Z,5.47
2018-06-13T09:11:14.735Z,6.30
2018-06-13T09:16:16.903Z,4.37
2018-06-13T09:21:19.094Z,4.40
2018-06-13T09:26:21.224Z,5.13
2018-06-13T09:31:23.437Z,3.43
2018-06-13T09:36:25.628Z,3.63
2018-06-13T09:41:27.753Z,3.27
2018-06-13T09:46:29.894Z,3.00
2018-06-13T09:51:32.039Z,5.80
2018-06-13T09:56:34.190Z,7.23
2018-06-13T10:01:41.996Z,4.90
2018-06-13T10:06:44.159Z,3.10
2018-06-13T10:11:46.293Z,5.43
2018-06-13T10:16:48.435Z,4.00
2018-06-13T10:21:50.598Z,4.93
2018-06-13T10:26:52.753Z,4.07
2018-06-13T10:31:54.957Z,4.00
2018-06-13T10:36:57.126Z,5.93
2018-06-13T10:41:59.298Z,4.40
2018-06-13T10:47:01.474Z,5.60
2018-06-13T10:52:03.678Z,5.50
2018-06-13T10:57:05.862Z,6.37
2018-06-13T11:02:08.045Z,4.10
2018-06-13T11:07:10.202Z,4.40
2018-06-13T11:12:12.434Z,7.13
2018-06-13T11:17:14.626Z,4.10
2018-06-13T11:22:16.782Z,8.07
2018-06-13T11:27:18.946Z,6.47
2018-06-13T11:32:21.146Z,6.70
2018-06-13T11:37:23.345Z,3.97
2018-06-13T11:42:25.537Z,3.90
2018-06-13T11:47:27.732Z,3.60
2018-06-13T11:52:29.882Z,5.50
2018-06-13T11:57:32.062Z,4.37
2018-06-13T12:02:34.290Z,5.80
2018-06-13T12:07:36.446Z,4.57
2018-06-13T12:12:38.657Z,4.63
2018-06-13T12:17:40.822Z,4.50
2018-06-13T12:22:42.974Z,3.50
2018-06-13T12:27:45.142Z,6.67
2018-06-13T12:32:47.342Z,7.27
2018-06-13T12:37:49.531Z,4.03
2018-06-13T12:42:51.741Z,3.67
2018-06-13T12:47:54.026Z,5.00
2018-06-13T12:52:56.413Z,3.43
2018-06-13T12:57:58.606Z,4.17
2018-06-13T13:03:00.803Z,4.60
2018-06-13T13:08:03.009Z,4.57
2018-06-13T13:13:05.207Z,4.03
2018-06-13T13:18:07.393Z,5.53
2018-06-13T13:23:09.579Z,4.70
2018-06-13T13:28:11.758Z,3.33
2018-06-13T13:33:13.918Z,4.30
2018-06-13T13:38:16.089Z,5.57
2018-06-13T13:43:18.234Z,3.70
2018-06-13T13:48:20.394Z,5.90
2018-06-13T13:53:22.555Z,4.23
2018-06-13T13:58:24.715Z,4.63
2018-06-13T14:03:26.854Z,4.40
2018-06-13T14:08:28.982Z,4.33
2018-06-13T14:13:31.540Z,3.13
2018-06-13T14:18:33.689Z,3.30
2018-06-13T14:23:35.814Z,2.90
2018-06-13T14:28:37.954Z,2.80
2018-06-13T14:33:40.390Z,2.53
2018-06-13T14:38:42.514Z,2.30
2018-06-13T14:43:44.667Z,3.40
2018-06-13T14:48:46.822Z,8.37
2018-06-13T14:53:50.646Z,6.17
2018-06-13T14:58:52.792Z,3.47
2018-06-13T15:03:55.117Z,4.40
2018-06-13T15:08:57.270Z,5.70
2018-06-13T15:13:59.429Z,5.90
2018-06-13T15:19:01.650Z,5.47
2018-06-13T15:24:03.790Z,8.53
2018-06-13T15:29:06.025Z,6.90
2018-06-13T15:34:08.273Z,3.70
2018-06-13T15:39:12.222Z,5.07
2018-06-13T15:44:14.377Z,4.87
2018-06-13T15:49:16.537Z,4.40
2018-06-13T15:54:18.713Z,5.00
2018-06-13T15:59:20.850Z,4.10
2018-06-13T16:04:23.022Z,6.43
2018-06-13T16:09:25.185Z,6.70
2018-06-13T16:14:27.333Z,4.93
2018-06-13T16:19:29.522Z,6.20
2018-06-13T16:24:32.137Z,5.63
2018-06-13T16:29:34.342Z,10.40
2018-06-13T16:34:36.482Z,5.30
2018-06-13T16:39:39.065Z,8.20
2018-06-13T16:44:41.221Z,6.40
2018-06-13T16:49:43.410Z,4.13
2018-06-13T16:54:57.976Z,7.03
2018-06-13T17:00:00.167Z,4.53
2018-06-13T17:05:02.344Z,6.07
2018-06-13T17:10:04.551Z,5.03
2018-06-13T17:15:06.783Z,6.17
2018-06-13T17:20:08.937Z,11.07
2018-06-13T17:25:11.105Z,5.07
2018-06-13T17:30:13.294Z,4.03
2018-06-13T17:35:15.450Z,10.03
2018-06-13T17:40:17.602Z,6.07
2018-06-13T17:45:19.911Z,7.33
2018-06-13T17:50:22.077Z,5.10
2018-06-13T17:55:24.278Z,6.33
2018-06-13T18:00:26.495Z,4.50
2018-06-13T18:05:28.650Z,6.30
2018-06-13T18:10:30.791Z,8.43
2018-06-13T18:15:32.995Z,5.50
2018-06-13T18:20:35.175Z,5.10
2018-06-13T18:25:37.357Z,4.37
2018-06-13T18:30:40.427Z,5.60
2018-06-13T18:35:42.600Z,7.80
2018-06-13T18:40:44.766Z,7.97
2018-06-13T18:45:46.907Z,5.23
2018-06-13T18:50:49.101Z,4.40
2018-06-13T18:55:51.269Z,9.03
2018-06-13T19:00:53.471Z,5.77
2018-06-13T19:05:55.653Z,4.43
2018-06-13T19:10:57.815Z,4.77
2018-06-13T19:15:59.992Z,4.63
2018-06-13T19:21:02.168Z,5.10
2018-06-13T19:26:04.449Z,4.93
2018-06-13T19:31:06.687Z,11.47
2018-06-13T19:36:08.956Z,4.63
2018-06-13T19:41:11.197Z,5.23
2018-06-13T19:46:13.626Z,8.97
2018-06-13T19:51:15.818Z,5.33
2018-06-13T19:56:20.577Z,5.77
2018-06-13T20:01:22.829Z,6.10
2018-06-13T20:06:24.972Z,13.83
2018-06-13T20:11:27.151Z,5.83
2018-06-13T20:16:46.852Z,8.83
2018-06-13T20:21:48.989Z,9.70
2018-06-13T20:26:56.751Z,7.20
2018-06-13T20:31:58.918Z,5.87
2018-06-13T20:37:01.068Z,5.70
2018-06-13T20:42:03.225Z,7.80
2018-06-13T20:47:05.404Z,12.30
2018-06-13T20:52:07.561Z,10.60
2018-06-13T20:57:09.726Z,6.27
2018-06-13T21:02:11.889Z,12.00
2018-06-13T21:07:14.025Z,7.67
2018-06-13T21:12:16.188Z,10.10
2018-06-13T21:17:18.384Z,8.40
2018-06-13T21:22:20.675Z,6.77
2018-06-13T21:27:22.850Z,8.87
2018-06-13T21:32:24.973Z,12.33
2018-06-13T21:37:27.106Z,10.00
2018-06-13T21:42:29.298Z,7.17
2018-06-13T21:47:31.455Z,11.63
2018-06-13T21:52:33.614Z,8.10
2018-06-13T21:57:35.783Z,7.27
2018-06-13T22:02:37.935Z,9.03
2018-06-13T22:07:40.137Z,9.43
2018-06-13T22:12:42.299Z,10.47
2018-06-13T22:17:44.453Z,9.50
2018-06-13T22:22:46.790Z,8.27
2018-06-13T22:27:48.961Z,8.00
2018-06-13T22:32:51.174Z,8.40
2018-06-13T22:37:53.341Z,8.40
2018-06-13T22:42:55.538Z,15.50
2018-06-13T22:47:57.734Z,7.90
2018-06-13T22:52:59.913Z,11.43
2018-06-13T22:58:02.297Z,8.37
2018-06-13T23:03:04.518Z,11.67
2018-06-13T23:08:06.667Z,9.07
2018-06-13T23:13:08.878Z,8.40
2018-06-13T23:18:11.063Z,8.50
2018-06-13T23:23:13.229Z,8.53
2018-06-13T23:28:15.387Z,9.83
2018-06-13T23:33:17.566Z,9.60
2018-06-13T23:38:19.754Z,12.33
2018-06-13T23:43:22.137Z,9.50
2018-06-13T23:48:24.310Z,9.00
2018-06-13T23:53:26.502Z,13.07
2018-06-13T23:58:28.677Z,8.83
